createdAt,value
2023-03-13T00:01:30.761Z,5.63
2023-03-13T00:03:58.025Z,5.63
2023-03-13T00:06:27.782Z,5.61
2023-03-13T00:08:56.194Z,5.62
2023-03-13T00:11:23.339Z,5.61
2023-03-13T00:13:54.808Z,5.40
2023-03-13T00:16:21.964Z,5.64
2023-03-13T00:18:51.674Z,5.39
2023-03-13T00:21:20.885Z,5.70
2023-03-13T00:23:48.735Z,5.80
2023-03-13T00:26:19.235Z,5.42
2023-03-13T00:28:46.709Z,5.42
2023-03-13T00:31:15.122Z,5.43
2023-03-13T00:33:47.903Z,5.48
2023-03-13T00:36:18.711Z,5.59
2023-03-13T00:38:46.281Z,5.59
2023-03-13T00:41:16.822Z,5.34
2023-03-13T00:43:45.311Z,5.24
2023-03-13T00:46:13.955Z,5.32
2023-03-13T00:48:40.932Z,6.29
2023-03-13T00:51:08.367Z,6.13
2023-03-13T00:53:35.627Z,6.00
2023-03-13T00:56:04.614Z,5.28
2023-03-13T00:58:35.266Z,6.09
2023-03-13T01:01:09.196Z,6.42
2023-03-13T01:03:37.703Z,5.47
2023-03-13T01:06:07.177Z,6.16
2023-03-13T01:08:34.841Z,6.06
2023-03-13T01:11:04.698Z,5.99
2023-03-13T01:13:34.008Z,5.67
2023-03-13T01:16:09.962Z,5.76
2023-03-13T01:18:44.986Z,5.11
2023-03-13T01:21:14.389Z,5.18
2023-03-13T01:23:43.324Z,4.81
2023-03-13T01:26:12.466Z,5.27
2023-03-13T01:28:40.644Z,4.80
2023-03-13T01:31:17.794Z,4.89
2023-03-13T01:33:46.200Z,5.00
2023-03-13T01:36:13.924Z,5.22
2023-03-13T01:38:41.758Z,5.77
2023-03-13T01:41:12.558Z,5.10
2023-03-13T01:43:40.128Z,4.54
2023-03-13T01:46:25.613Z,4.48
2023-03-13T01:49:04.634Z,4.84
2023-03-13T01:51:38.055Z,5.27
2023-03-13T01:54:26.297Z,4.85
2023-03-13T01:57:11.822Z,4.89
2023-03-13T01:59:48.531Z,5.45
2023-03-13T02:02:16.903Z,5.94
2023-03-13T02:04:50.876Z,5.19
2023-03-13T02:07:23.943Z,4.93
2023-03-13T02:09:56.854Z,5.43
2023-03-13T02:12:31.640Z,5.00
2023-03-13T02:15:06.056Z,5.44
2023-03-13T02:17:55.008Z,5.65
2023-03-13T02:20:26.504Z,5.19
2023-03-13T02:23:15.940Z,5.44
2023-03-13T02:25:52.151Z,5.79
2023-03-13T02:28:27.895Z,5.30
2023-03-13T02:30:57.153Z,5.18
2023-03-13T02:33:29.520Z,5.33
2023-03-13T02:35:57.377Z,5.38
2023-03-13T02:38:27.851Z,5.12
2023-03-13T02:40:57.033Z,4.76
2023-03-13T02:43:31.914Z,4.98
2023-03-13T02:46:05.578Z,5.04
2023-03-13T02:48:39.122Z,4.87
2023-03-13T02:51:22.775Z,4.69
2023-03-13T02:53:52.776Z,5.24
2023-03-13T02:56:24.525Z,5.22
2023-03-13T02:58:51.426Z,5.20
2023-03-13T03:01:19.023Z,5.21
2023-03-13T03:03:46.140Z,5.20
2023-03-13T03:06:23.909Z,5.73
2023-03-13T03:08:51.349Z,5.70
2023-03-13T03:11:18.688Z,5.27
2023-03-13T03:13:46.053Z,5.52
2023-03-13T03:16:18.872Z,5.57
2023-03-13T03:18:47.012Z,5.89
2023-03-13T03:21:14.423Z,6.17
2023-03-13T03:23:41.593Z,6.02
2023-03-13T03:26:13.222Z,6.06
2023-03-13T03:29:00.193Z,5.75
2023-03-13T03:31:27.905Z,5.22
2023-03-13T03:33:57.447Z,5.36
2023-03-13T03:36:24.704Z,4.25
2023-03-13T03:38:52.338Z,4.71
2023-03-13T03:41:19.540Z,4.64
2023-03-13T03:43:48.188Z,4.86
2023-03-13T03:46:16.136Z,5.16
2023-03-13T03:48:43.157Z,4.99
2023-03-13T03:51:10.638Z,4.61
2023-03-13T03:53:37.518Z,5.22
2023-03-13T03:56:04.693Z,4.71
2023-03-13T03:58:31.651Z,4.58
2023-03-13T04:00:59.652Z,4.83
2023-03-13T04:03:26.907Z,4.76
2023-03-13T04:05:54.095Z,4.72
2023-03-13T04:08:41.022Z,4.18
2023-03-13T04:11:26.136Z,4.47
2023-03-13T04:13:52.947Z,4.49
2023-03-13T04:16:20.246Z,4.33
2023-03-13T04:18:48.554Z,4.61
2023-03-13T04:21:15.725Z,4.53
2023-03-13T04:23:42.655Z,4.96
2023-03-13T04:26:09.639Z,4.62
2023-03-13T04:28:36.532Z,4.53
2023-03-13T04:31:03.442Z,4.20
2023-03-13T04:33:30.576Z,4.24
2023-03-13T04:35:57.577Z,4.44
2023-03-13T04:38:24.877Z,4.73
2023-03-13T04:41:11.940Z,4.38
2023-03-13T04:43:38.974Z,4.19
2023-03-13T04:46:06.582Z,4.04
2023-03-13T04:48:34.156Z,4.82
2023-03-13T04:51:02.424Z,4.99
2023-03-13T04:53:29.765Z,4.38
2023-03-13T04:55:56.920Z,4.67
2023-03-13T04:58:24.346Z,4.69
2023-03-13T05:00:51.476Z,5.18
2023-03-13T05:03:18.860Z,5.08
2023-03-13T05:05:45.865Z,5.15
2023-03-13T05:08:15.475Z,5.05
2023-03-13T05:10:43.953Z,4.71
2023-03-13T05:13:11.897Z,4.93
2023-03-13T05:15:38.941Z,4.21
2023-03-13T05:18:06.398Z,4.45
2023-03-13T05:20:33.426Z,4.31
2023-03-13T05:23:00.842Z,4.37
2023-03-13T05:25:28.411Z,4.77
2023-03-13T05:27:55.964Z,4.47
2023-03-13T05:30:23.108Z,4.97
2023-03-13T05:32:50.270Z,5.18
2023-03-13T05:35:17.497Z,5.58
2023-03-13T05:37:46.021Z,5.81
2023-03-13T05:40:14.620Z,6.32
2023-03-13T05:42:42.517Z,6.13
2023-03-13T05:45:11.017Z,5.95
2023-03-13T05:47:39.188Z,6.74
2023-03-13T05:50:08.087Z,7.88
2023-03-13T05:52:36.028Z,8.51
2023-03-13T05:55:03.142Z,8.24
2023-03-13T05:57:30.082Z,8.67
2023-03-13T05:59:57.031Z,8.86
2023-03-13T06:02:24.044Z,8.12
2023-03-13T06:04:51.144Z,8.82
2023-03-13T06:07:18.282Z,9.57
2023-03-13T06:09:45.247Z,9.82
2023-03-13T06:12:12.771Z,9.60
2023-03-13T06:14:39.979Z,8.71
2023-03-13T06:17:07.228Z,8.52
2023-03-13T06:19:34.147Z,8.32
2023-03-13T06:22:01.599Z,7.55
2023-03-13T06:24:28.767Z,7.88
2023-03-13T06:26:55.982Z,7.06
2023-03-13T06:29:30.447Z,7.18
2023-03-13T06:31:58.524Z,7.34
2023-03-13T06:34:25.706Z,7.89
2023-03-13T06:36:52.732Z,7.27
2023-03-13T06:39:19.858Z,7.65
2023-03-13T06:41:46.772Z,7.40
2023-03-13T06:44:14.443Z,7.74
2023-03-13T06:46:42.310Z,7.79
2023-03-13T06:49:10.120Z,8.27
2023-03-13T06:51:37.538Z,7.54
2023-03-13T06:54:04.585Z,7.33
2023-03-13T06:56:32.530Z,6.97
2023-03-13T06:59:00.147Z,7.56
2023-03-13T07:01:27.453Z,7.59
2023-03-13T07:03:54.877Z,7.94
2023-03-13T07:06:21.998Z,7.36
2023-03-13T07:08:49.036Z,7.44
2023-03-13T07:11:16.537Z,9.01
2023-03-13T07:13:43.645Z,10.07
2023-03-13T07:16:13.574Z,10.15
2023-03-13T07:18:45.065Z,10.08
2023-03-13T07:21:13.028Z,12.27
2023-03-13T07:23:40.132Z,11.21
2023-03-13T07:26:11.024Z,12.40
2023-03-13T07:28:38.199Z,11.62
2023-03-13T07:31:12.736Z,12.17
2023-03-13T07:33:40.419Z,12.68
2023-03-13T07:36:08.185Z,12.35
2023-03-13T07:38:36.017Z,12.01
2023-03-13T07:41:05.047Z,11.67
2023-03-13T07:43:32.624Z,11.30
2023-03-13T07:46:03.997Z,10.58
2023-03-13T07:48:35.820Z,10.55
2023-03-13T07:51:03.827Z,9.69
2023-03-13T07:53:33.007Z,10.78
2023-03-13T07:56:06.411Z,10.74
2023-03-13T07:58:40.859Z,12.07
2023-03-13T08:01:20.356Z,12.04
2023-03-13T08:03:52.842Z,11.86
2023-03-13T08:06:23.747Z,12.94
2023-03-13T08:08:51.991Z,13.33
2023-03-13T08:11:22.305Z,13.93
2023-03-13T08:13:52.038Z,11.62
2023-03-13T08:16:22.593Z,11.67
2023-03-13T08:18:52.599Z,12.05
2023-03-13T08:21:22.496Z,12.32
2023-03-13T08:23:50.124Z,13.47
2023-03-13T08:26:20.316Z,14.02
2023-03-13T08:28:48.930Z,15.42
2023-03-13T08:31:19.027Z,14.16
2023-03-13T08:33:49.370Z,15.97
2023-03-13T08:36:23.360Z,16.11
2023-03-13T08:38:51.791Z,16.94
2023-03-13T08:41:24.540Z,17.87
2023-03-13T08:43:55.590Z,18.49
2023-03-13T08:46:23.427Z,18.94
2023-03-13T08:48:55.311Z,19.24
2023-03-13T08:51:24.544Z,19.34
2023-03-13T08:53:52.385Z,19.27
2023-03-13T08:56:21.993Z,19.79
2023-03-13T08:58:53.698Z,19.48
2023-03-13T09:01:21.939Z,19.26
2023-03-13T09:03:49.352Z,17.35
2023-03-13T09:06:17.234Z,18.31
2023-03-13T09:08:44.851Z,17.81
2023-03-13T09:11:20.138Z,18.15
2023-03-13T09:13:50.340Z,18.66
2023-03-13T09:16:25.621Z,16.34
2023-03-13T09:18:53.499Z,16.37
2023-03-13T09:21:23.036Z,16.43
2023-03-13T09:23:51.201Z,16.30
2023-03-13T09:26:22.262Z,17.60
2023-03-13T09:28:50.235Z,17.29
2023-03-13T09:31:20.384Z,18.61
2023-03-13T09:33:48.927Z,17.53
2023-03-13T09:36:19.193Z,17.39
2023-03-13T09:38:47.990Z,17.21
2023-03-13T09:41:17.707Z,17.66
2023-03-13T09:43:50.595Z,18.12
2023-03-13T09:46:28.763Z,18.27
2023-03-13T09:49:00.457Z,18.33
2023-03-13T09:51:38.653Z,18.71
2023-03-13T09:54:14.641Z,19.52
2023-03-13T09:56:51.353Z,20.31
2023-03-13T09:59:24.855Z,20.79
2023-03-13T10:01:55.800Z,21.17
2023-03-13T10:04:22.814Z,21.43
2023-03-13T10:06:50.001Z,21.46
2023-03-13T10:09:23.222Z,21.76
2023-03-13T10:12:03.093Z,21.70
2023-03-13T10:14:47.340Z,21.97
2023-03-13T10:17:26.651Z,21.48
2023-03-13T10:20:01.582Z,22.40
2023-03-13T10:22:31.642Z,22.29
2023-03-13T10:25:07.893Z,22.77
2023-03-13T10:27:54.054Z,22.61
2023-03-13T10:30:25.974Z,23.24
2023-03-13T10:33:07.554Z,23.45
2023-03-13T10:35:43.287Z,23.76
2023-03-13T10:38:20.741Z,23.98
2023-03-13T10:41:28.512Z,23.77
2023-03-13T10:44:14.815Z,23.83
2023-03-13T10:46:46.793Z,23.87
2023-03-13T10:49:17.294Z,23.57
2023-03-13T10:51:53.723Z,23.88
2023-03-13T10:54:26.203Z,23.29
2023-03-13T10:57:13.792Z,23.48
2023-03-13T10:59:48.268Z,23.31
2023-03-13T11:02:34.704Z,23.35
2023-03-13T11:05:38.168Z,23.35
2023-03-13T11:08:24.464Z,24.21
2023-03-13T11:11:00.202Z,23.31
2023-03-13T11:13:37.301Z,22.72
2023-03-13T11:16:25.823Z,23.29
2023-03-13T11:19:25.556Z,22.53
2023-03-13T11:22:13.054Z,23.13
2023-03-13T11:24:49.209Z,23.54
2023-03-13T11:27:19.347Z,23.32
2023-03-13T11:30:24.289Z,23.31
2023-03-13T11:33:05.089Z,23.39
2023-03-13T11:36:20.348Z,22.74
2023-03-13T11:38:54.538Z,23.84
2023-03-13T11:41:44.295Z,22.52
2023-03-13T11:44:24.584Z,22.62
2023-03-13T11:46:57.562Z,22.68
2023-03-13T11:49:41.065Z,23.33
2023-03-13T11:52:18.768Z,23.62
2023-03-13T11:54:50.960Z,23.89
2023-03-13T11:57:35.532Z,23.89
2023-03-13T12:00:47.678Z,24.14
2023-03-13T12:03:27.121Z,24.28
2023-03-13T12:05:57.658Z,24.59
2023-03-13T12:08:32.277Z,24.01
2023-03-13T12:11:13.789Z,23.89
2023-03-13T12:14:14.072Z,24.36
2023-03-13T12:16:50.136Z,24.51
2023-03-13T12:19:27.384Z,24.42
2023-03-13T12:22:00.811Z,24.31
2023-03-13T12:24:28.035Z,25.09
2023-03-13T12:27:04.870Z,24.96
2023-03-13T12:29:46.530Z,24.82
2023-03-13T12:32:18.468Z,24.72
2023-03-13T12:35:12.950Z,23.80
2023-03-13T12:37:47.928Z,23.84
2023-03-13T12:40:38.721Z,23.62
2023-03-13T12:43:14.871Z,23.98
2023-03-13T12:46:02.326Z,23.68
2023-03-13T12:49:09.519Z,21.85
2023-03-13T12:52:07.507Z,21.45
2023-03-13T12:55:04.674Z,22.10
2023-03-13T12:57:43.540Z,22.45
2023-03-13T13:00:20.595Z,22.18
2023-03-13T13:02:48.025Z,22.14
2023-03-13T13:05:24.791Z,22.08
2023-03-13T13:07:56.748Z,22.88
2023-03-13T13:10:29.007Z,23.27
2023-03-13T13:13:14.355Z,23.64
2023-03-13T13:16:17.893Z,23.06
2023-03-13T13:18:45.045Z,23.18
2023-03-13T13:21:26.961Z,23.54
2023-03-13T13:23:56.871Z,23.30
2023-03-13T13:26:27.055Z,23.61
2023-03-13T13:28:55.154Z,24.15
2023-03-13T13:31:57.216Z,24.05
2023-03-13T13:34:40.369Z,24.50
2023-03-13T13:37:15.141Z,25.07
2023-03-13T13:39:50.477Z,24.66
2023-03-13T13:42:33.867Z,24.39
2023-03-13T13:45:09.332Z,24.30
2023-03-13T13:47:39.432Z,24.52
2023-03-13T13:50:27.712Z,24.91
2023-03-13T13:53:33.464Z,24.60
2023-03-13T13:56:03.674Z,24.62
2023-03-13T13:58:32.844Z,24.52
2023-03-13T14:01:17.352Z,24.12
2023-03-13T14:03:53.433Z,24.66
2023-03-13T14:06:42.979Z,24.70
2023-03-13T14:09:40.551Z,24.09
2023-03-13T14:12:33.670Z,24.29
2023-03-13T14:15:23.406Z,23.60
2023-03-13T14:17:55.464Z,23.49
2023-03-13T14:20:37.078Z,23.76
2023-03-13T14:23:10.199Z,23.92
2023-03-13T14:25:51.257Z,23.53
2023-03-13T14:28:20.716Z,23.45
2023-03-13T14:30:50.793Z,22.89
2023-03-13T14:33:18.272Z,23.01
2023-03-13T14:35:45.957Z,22.80
2023-03-13T14:38:24.700Z,23.13
2023-03-13T14:40:53.353Z,23.48
2023-03-13T14:43:41.176Z,23.14
2023-03-13T14:46:31.337Z,23.07
2023-03-13T14:49:08.372Z,22.93
2023-03-13T14:51:39.174Z,23.04
2023-03-13T14:54:06.578Z,22.81
2023-03-13T14:56:35.337Z,23.01
2023-03-13T14:59:17.117Z,23.29
2023-03-13T15:01:44.997Z,22.97
2023-03-13T15:04:12.564Z,22.66
2023-03-13T15:06:39.746Z,22.33
2023-03-13T15:09:24.220Z,22.58
2023-03-13T15:12:01.586Z,22.36
2023-03-13T15:14:38.333Z,22.70
2023-03-13T15:17:14.672Z,21.94
2023-03-13T15:19:42.834Z,22.20
2023-03-13T15:22:14.287Z,21.92
2023-03-13T15:24:44.070Z,22.17
2023-03-13T15:27:20.898Z,22.33
2023-03-13T15:29:48.161Z,22.14
2023-03-13T15:32:37.766Z,22.33
2023-03-13T15:35:24.265Z,22.08
2023-03-13T15:37:51.705Z,22.00
2023-03-13T15:40:20.008Z,21.97
2023-03-13T15:42:51.680Z,22.02
2023-03-13T15:45:18.994Z,21.86
2023-03-13T15:47:46.505Z,21.67
2023-03-13T15:50:15.164Z,21.81
2023-03-13T15:52:45.081Z,21.78
2023-03-13T15:55:13.476Z,21.68
2023-03-13T15:57:47.276Z,21.58
2023-03-13T16:00:27.930Z,21.66
2023-03-13T16:02:55.035Z,21.91
2023-03-13T16:05:22.177Z,21.25
2023-03-13T16:07:49.304Z,21.48
2023-03-13T16:10:25.225Z,20.81
2023-03-13T16:12:53.481Z,21.18
2023-03-13T16:15:21.099Z,20.80
2023-03-13T16:17:48.192Z,20.87
2023-03-13T16:20:19.156Z,20.67
2023-03-13T16:22:46.236Z,20.63
2023-03-13T16:25:16.705Z,20.73
2023-03-13T16:27:44.418Z,20.72
2023-03-13T16:30:20.784Z,20.30
2023-03-13T16:32:47.906Z,20.25
2023-03-13T16:35:15.009Z,20.43
2023-03-13T16:37:42.328Z,20.31
2023-03-13T16:40:33.208Z,20.19
2023-03-13T16:43:01.237Z,19.97
2023-03-13T16:45:28.526Z,19.87
2023-03-13T16:47:55.577Z,19.85
2023-03-13T16:50:26.992Z,19.78
2023-03-13T16:52:55.010Z,19.60
2023-03-13T16:55:28.289Z,19.52
2023-03-13T16:58:01.262Z,19.51
2023-03-13T17:00:30.936Z,18.75
2023-03-13T17:02:58.402Z,18.98
2023-03-13T17:05:27.192Z,18.54
2023-03-13T17:07:54.411Z,18.43
2023-03-13T17:10:25.031Z,18.57
2023-03-13T17:12:52.252Z,17.92
2023-03-13T17:15:20.593Z,17.75
2023-03-13T17:17:52.237Z,17.96
2023-03-13T17:20:24.683Z,17.34
2023-03-13T17:22:51.752Z,17.29
2023-03-13T17:25:19.411Z,17.12
2023-03-13T17:27:49.512Z,17.30
2023-03-13T17:30:16.515Z,17.42
2023-03-13T17:32:43.685Z,17.18
2023-03-13T17:35:10.744Z,17.46
2023-03-13T17:37:39.795Z,17.57
2023-03-13T17:40:16.498Z,17.37
2023-03-13T17:42:43.795Z,17.49
2023-03-13T17:45:11.441Z,17.25
2023-03-13T17:47:39.002Z,17.39
2023-03-13T17:50:24.556Z,17.00
2023-03-13T17:52:51.617Z,17.24
2023-03-13T17:55:19.237Z,16.86
2023-03-13T17:57:48.080Z,16.35
2023-03-13T18:00:30.396Z,16.69
2023-03-13T18:02:57.758Z,16.46
2023-03-13T18:05:25.852Z,16.95
2023-03-13T18:07:56.271Z,16.69
2023-03-13T18:10:29.156Z,16.79
2023-03-13T18:12:57.143Z,16.50
2023-03-13T18:15:26.430Z,16.49
2023-03-13T18:17:53.951Z,16.85
2023-03-13T18:20:25.833Z,17.11
2023-03-13T18:22:54.288Z,16.25
2023-03-13T18:25:24.103Z,16.68
2023-03-13T18:27:51.090Z,17.13
2023-03-13T18:30:21.962Z,17.16
2023-03-13T18:32:49.568Z,16.84
2023-03-13T18:35:17.593Z,16.95
2023-03-13T18:37:46.751Z,17.22
2023-03-13T18:40:18.593Z,17.19
2023-03-13T18:42:46.026Z,17.14
2023-03-13T18:45:18.431Z,17.15
2023-03-13T18:47:46.042Z,17.05
2023-03-13T18:50:27.517Z,16.72
2023-03-13T18:52:56.459Z,16.34
2023-03-13T18:55:30.342Z,16.74
2023-03-13T18:57:57.961Z,16.27
2023-03-13T19:00:31.017Z,16.35
2023-03-13T19:02:58.273Z,16.29
2023-03-13T19:05:25.354Z,16.21
2023-03-13T19:07:52.349Z,16.17
2023-03-13T19:10:31.429Z,16.31
2023-03-13T19:12:58.527Z,16.48
2023-03-13T19:15:29.198Z,16.23
2023-03-13T19:17:59.939Z,16.09
2023-03-13T19:20:28.072Z,16.41
2023-03-13T19:22:58.164Z,16.46
2023-03-13T19:25:25.269Z,16.13
2023-03-13T19:27:52.186Z,15.95
2023-03-13T19:30:25.484Z,15.92
2023-03-13T19:32:52.907Z,16.17
2023-03-13T19:35:22.380Z,16.30
2023-03-13T19:37:49.962Z,16.38
2023-03-13T19:40:26.841Z,16.15
2023-03-13T19:42:53.812Z,16.04
2023-03-13T19:45:22.297Z,15.89
2023-03-13T19:47:49.435Z,15.87
2023-03-13T19:50:19.255Z,15.84
2023-03-13T19:52:46.467Z,14.97
2023-03-13T19:55:13.931Z,15.27
2023-03-13T19:57:41.285Z,15.40
2023-03-13T20:00:14.217Z,15.36
2023-03-13T20:02:41.884Z,15.36
2023-03-13T20:05:10.403Z,15.04
2023-03-13T20:07:37.781Z,15.17
2023-03-13T20:10:05.640Z,15.33
2023-03-13T20:12:34.274Z,14.95
2023-03-13T20:15:01.312Z,14.83
2023-03-13T20:17:28.293Z,15.16
2023-03-13T20:19:55.569Z,14.88
2023-03-13T20:22:22.539Z,14.77
2023-03-13T20:24:49.542Z,14.92
2023-03-13T20:27:16.432Z,15.11
2023-03-13T20:29:43.473Z,14.73
2023-03-13T20:32:11.520Z,14.75
2023-03-13T20:34:38.448Z,15.07
2023-03-13T20:37:05.698Z,14.88
2023-03-13T20:39:34.395Z,14.93
2023-03-13T20:42:03.241Z,15.31
2023-03-13T20:44:30.355Z,15.06
2023-03-13T20:46:57.236Z,14.65
2023-03-13T20:49:24.283Z,14.81
2023-03-13T20:51:51.147Z,14.74
2023-03-13T20:54:18.033Z,15.08
2023-03-13T20:56:44.872Z,15.09
2023-03-13T20:59:11.746Z,14.90
2023-03-13T21:01:38.665Z,14.86
2023-03-13T21:04:05.646Z,14.96
2023-03-13T21:06:32.763Z,14.61
2023-03-13T21:08:59.855Z,15.01
2023-03-13T21:11:26.723Z,15.12
2023-03-13T21:13:53.650Z,15.30
2023-03-13T21:16:20.548Z,15.34
2023-03-13T21:18:47.836Z,14.99
2023-03-13T21:21:17.548Z,15.27
2023-03-13T21:23:45.566Z,15.28
2023-03-13T21:26:13.661Z,14.99
2023-03-13T21:28:41.209Z,15.25
2023-03-13T21:31:13.567Z,15.37
2023-03-13T21:33:43.331Z,15.10
2023-03-13T21:36:11.624Z,15.17
2023-03-13T21:38:38.792Z,15.11
2023-03-13T21:41:10.789Z,15.18
2023-03-13T21:43:40.632Z,15.07
2023-03-13T21:46:08.615Z,14.91
2023-03-13T21:48:35.530Z,15.00
2023-03-13T21:51:02.396Z,14.98
2023-03-13T21:53:29.303Z,14.94
2023-03-13T21:55:56.187Z,14.82
2023-03-13T21:58:23.061Z,14.86
2023-03-13T22:00:54.884Z,14.78
2023-03-13T22:03:22.584Z,14.33
2023-03-13T22:05:49.628Z,14.41
2023-03-13T22:08:16.544Z,14.48
2023-03-13T22:10:51.909Z,14.24
2023-03-13T22:13:19.042Z,14.26
2023-03-13T22:15:46.808Z,14.25
2023-03-13T22:18:17.288Z,14.44
2023-03-13T22:20:44.789Z,14.36
2023-03-13T22:23:12.428Z,14.35
2023-03-13T22:25:40.895Z,14.25
2023-03-13T22:28:07.895Z,14.45
2023-03-13T22:30:35.511Z,14.31
2023-03-13T22:33:04.006Z,14.31
2023-03-13T22:35:30.950Z,14.48
2023-03-13T22:37:58.108Z,14.19
2023-03-13T22:40:25.192Z,14.09
2023-03-13T22:42:52.070Z,14.28
2023-03-13T22:45:19.522Z,14.43
2023-03-13T22:47:46.459Z,14.18
2023-03-13T22:50:13.839Z,14.01
2023-03-13T22:52:41.095Z,14.17
2023-03-13T22:55:08.425Z,14.27
2023-03-13T22:57:35.441Z,14.45
2023-03-13T23:00:02.356Z,14.25
2023-03-13T23:02:29.395Z,14.55
2023-03-13T23:04:58.690Z,14.43
2023-03-13T23:07:28.608Z,14.36
2023-03-13T23:09:56.190Z,14.53
2023-03-13T23:12:24.533Z,14.38
2023-03-13T23:14:52.509Z,14.26
2023-03-13T23:17:19.391Z,14.32
2023-03-13T23:19:46.453Z,14.48
2023-03-13T23:22:17.994Z,14.47
2023-03-13T23:24:45.199Z,14.50
2023-03-13T23:27:12.299Z,14.26
2023-03-13T23:29:39.369Z,14.31
2023-03-13T23:32:06.919Z,14.16
2023-03-13T23:34:35.824Z,14.52
2023-03-13T23:37:03.209Z,14.32
2023-03-13T23:39:30.266Z,14.15
2023-03-13T23:41:57.161Z,14.18
2023-03-13T23:44:24.049Z,14.29
2023-03-13T23:46:50.973Z,14.23
2023-03-13T23:49:17.811Z,14.19
2023-03-13T23:51:44.662Z,14.20
2023-03-13T23:54:11.563Z,14.02
2023-03-13T23:56:38.466Z,14.09
2023-03-13T23:59:05.449Z,14.04
